createdAt,value
2023-02-27T00:01:14.657Z,4.45
2023-02-27T00:03:41.348Z,3.95
2023-02-27T00:06:08.069Z,4.05
2023-02-27T00:08:34.818Z,4.60
2023-02-27T00:11:01.479Z,4.32
2023-02-27T00:13:28.095Z,4.59
2023-02-27T00:15:54.737Z,4.41
2023-02-27T00:18:21.492Z,4.61
2023-02-27T00:20:48.175Z,4.42
2023-02-27T00:23:14.804Z,4.37
2023-02-27T00:25:41.522Z,4.15
2023-02-27T00:28:08.201Z,4.46
2023-02-27T00:30:34.920Z,4.43
2023-02-27T00:33:01.580Z,4.43
2023-02-27T00:35:28.216Z,4.44
2023-02-27T00:37:54.843Z,3.98
2023-02-27T00:40:21.507Z,4.11
2023-02-27T00:42:48.159Z,3.94
2023-02-27T00:45:14.777Z,3.95
2023-02-27T00:47:41.426Z,3.99
2023-02-27T00:50:10.715Z,3.95
2023-02-27T00:52:37.363Z,4.37
2023-02-27T00:55:04.021Z,3.65
2023-02-27T00:57:30.677Z,3.79
2023-02-27T00:59:57.408Z,3.62
2023-02-27T01:02:24.107Z,3.93
2023-02-27T01:04:50.787Z,4.03
2023-02-27T01:07:17.423Z,3.92
2023-02-27T01:09:44.045Z,3.71
2023-02-27T01:12:10.670Z,3.76
2023-02-27T01:14:37.314Z,3.77
2023-02-27T01:17:03.968Z,4.14
2023-02-27T01:19:30.603Z,4.04
2023-02-27T01:21:57.248Z,4.02
2023-02-27T01:24:23.867Z,4.18
2023-02-27T01:26:50.486Z,3.97
2023-02-27T01:29:17.113Z,3.89
2023-02-27T01:31:43.824Z,3.90
2023-02-27T01:34:10.519Z,3.94
2023-02-27T01:36:37.184Z,4.31
2023-02-27T01:39:03.859Z,4.13
2023-02-27T01:41:30.508Z,4.30
2023-02-27T01:44:01.112Z,3.89
2023-02-27T01:46:28.854Z,4.09
2023-02-27T01:48:58.043Z,4.00
2023-02-27T01:51:24.878Z,4.09
2023-02-27T01:53:51.931Z,4.06
2023-02-27T01:56:26.195Z,4.01
2023-02-27T01:58:54.515Z,4.26
2023-02-27T02:01:21.167Z,3.83
2023-02-27T02:03:52.640Z,4.36
2023-02-27T02:06:19.282Z,3.88
2023-02-27T02:08:46.567Z,4.05
2023-02-27T02:11:13.836Z,4.10
2023-02-27T02:13:40.636Z,4.36
2023-02-27T02:16:38.054Z,4.11
2023-02-27T02:19:07.460Z,4.03
2023-02-27T02:21:43.469Z,4.10
2023-02-27T02:24:44.265Z,4.07
2023-02-27T02:27:27.893Z,4.07
2023-02-27T02:30:15.332Z,4.16
2023-02-27T02:33:23.292Z,3.96
2023-02-27T02:36:11.638Z,4.16
2023-02-27T02:39:20.050Z,4.01
2023-02-27T02:41:53.502Z,3.95
2023-02-27T02:44:24.240Z,4.15
2023-02-27T02:47:05.963Z,3.98
2023-02-27T02:49:52.627Z,3.99
2023-02-27T02:52:27.131Z,4.09
2023-02-27T02:55:37.465Z,4.57
2023-02-27T02:58:12.241Z,4.01
2023-02-27T03:00:51.914Z,4.23
2023-02-27T03:03:22.534Z,4.06
2023-02-27T03:05:54.876Z,4.12
2023-02-27T03:08:23.650Z,4.20
2023-02-27T03:10:57.931Z,4.09
2023-02-27T03:13:36.696Z,4.37
2023-02-27T03:16:37.965Z,4.37
2023-02-27T03:19:14.723Z,4.21
2023-02-27T03:21:46.258Z,4.34
2023-02-27T03:24:15.153Z,4.14
2023-02-27T03:26:42.955Z,4.18
2023-02-27T03:29:11.405Z,4.39
2023-02-27T03:31:50.178Z,4.41
2023-02-27T03:34:46.057Z,3.92
2023-02-27T03:37:43.623Z,4.25
2023-02-27T03:40:40.285Z,4.20
2023-02-27T03:43:33.300Z,4.34
2023-02-27T03:46:07.667Z,4.43
2023-02-27T03:48:34.349Z,4.39
2023-02-27T03:51:00.976Z,4.31
2023-02-27T03:53:47.575Z,4.28
2023-02-27T03:56:14.382Z,4.30
2023-02-27T03:58:41.014Z,4.42
2023-02-27T04:01:07.671Z,4.60
2023-02-27T04:03:35.405Z,4.30
2023-02-27T04:06:02.040Z,4.38
2023-02-27T04:08:35.012Z,4.57
2023-02-27T04:11:20.343Z,4.38
2023-02-27T04:14:17.820Z,4.30
2023-02-27T04:17:14.033Z,4.29
2023-02-27T04:20:06.686Z,4.24
2023-02-27T04:22:36.963Z,4.32
2023-02-27T04:25:33.227Z,4.53
2023-02-27T04:28:18.582Z,4.25
2023-02-27T04:30:46.503Z,4.46
2023-02-27T04:33:19.055Z,4.56
2023-02-27T04:36:47.187Z,4.15
2023-02-27T04:39:19.419Z,4.23
2023-02-27T04:41:52.201Z,4.61
2023-02-27T04:44:18.961Z,4.68
2023-02-27T04:46:45.594Z,4.73
2023-02-27T04:49:15.329Z,4.13
2023-02-27T04:51:48.962Z,4.43
2023-02-27T04:54:17.371Z,4.68
2023-02-27T04:56:50.002Z,4.19
2023-02-27T04:59:18.399Z,4.49
2023-02-27T05:01:47.949Z,4.30
2023-02-27T05:04:15.992Z,4.52
2023-02-27T05:06:43.396Z,4.74
2023-02-27T05:09:12.754Z,4.80
2023-02-27T05:11:49.830Z,4.58
2023-02-27T05:14:22.437Z,4.45
2023-02-27T05:17:10.948Z,4.53
2023-02-27T05:19:38.617Z,4.53
2023-02-27T05:22:13.442Z,4.57
2023-02-27T05:25:01.816Z,4.59
2023-02-27T05:27:40.144Z,4.90
2023-02-27T05:30:17.710Z,4.90
2023-02-27T05:32:59.200Z,4.63
2023-02-27T05:35:34.195Z,4.57
2023-02-27T05:38:22.319Z,4.76
2023-02-27T05:41:09.302Z,4.71
2023-02-27T05:43:38.818Z,4.66
2023-02-27T05:46:07.570Z,4.70
2023-02-27T05:48:36.822Z,4.78
2023-02-27T05:51:03.494Z,4.83
2023-02-27T05:53:31.965Z,4.96
2023-02-27T05:55:59.453Z,4.98
2023-02-27T05:58:34.490Z,4.61
2023-02-27T06:01:02.661Z,4.72
2023-02-27T06:03:30.136Z,4.77
2023-02-27T06:05:57.644Z,4.76
2023-02-27T06:08:24.444Z,4.71
2023-02-27T06:10:51.151Z,4.66
2023-02-27T06:13:18.089Z,4.88
2023-02-27T06:15:45.199Z,4.34
2023-02-27T06:18:12.466Z,4.62
2023-02-27T06:20:39.692Z,4.70
2023-02-27T06:23:06.353Z,4.65
2023-02-27T06:25:33.114Z,4.45
2023-02-27T06:27:59.778Z,4.59
2023-02-27T06:30:29.788Z,4.80
2023-02-27T06:32:57.327Z,4.60
2023-02-27T06:35:24.523Z,4.85
2023-02-27T06:37:51.174Z,5.04
2023-02-27T06:40:17.812Z,4.72
2023-02-27T06:42:44.748Z,4.49
2023-02-27T06:45:12.134Z,5.03
2023-02-27T06:47:39.187Z,4.90
2023-02-27T06:50:06.233Z,4.93
2023-02-27T06:52:32.883Z,4.68
2023-02-27T06:54:59.513Z,4.69
2023-02-27T06:57:26.151Z,5.05
2023-02-27T06:59:52.804Z,5.19
2023-02-27T07:02:19.630Z,4.84
2023-02-27T07:04:46.408Z,5.03
2023-02-27T07:07:35.892Z,4.85
2023-02-27T07:09:59.779Z,4.95
2023-02-27T07:12:26.423Z,5.02
2023-02-27T07:14:53.039Z,5.14
2023-02-27T07:17:19.691Z,4.77
2023-02-27T07:19:46.353Z,4.72
2023-02-27T07:22:12.999Z,4.94
2023-02-27T07:24:39.626Z,5.28
2023-02-27T07:27:06.282Z,5.01
2023-02-27T07:29:32.922Z,5.04
2023-02-27T07:31:59.570Z,5.30
2023-02-27T07:34:26.346Z,5.17
2023-02-27T07:36:53.033Z,4.94
2023-02-27T07:39:19.975Z,5.11
2023-02-27T07:41:46.636Z,5.07
2023-02-27T07:44:13.273Z,5.30
2023-02-27T07:46:39.948Z,5.14
2023-02-27T07:49:06.598Z,5.25
2023-02-27T07:51:33.239Z,5.34
2023-02-27T07:53:59.908Z,5.04
2023-02-27T07:56:27.081Z,5.09
2023-02-27T07:58:53.948Z,5.06
2023-02-27T08:01:20.610Z,5.21
2023-02-27T08:03:47.274Z,5.28
2023-02-27T08:06:13.943Z,5.11
2023-02-27T08:08:40.599Z,5.15
2023-02-27T08:11:07.268Z,5.20
2023-02-27T08:16:20.593Z,4.95
2023-02-27T08:18:47.256Z,5.46
2023-02-27T08:21:13.920Z,5.17
2023-02-27T08:23:42.595Z,5.12
2023-02-27T08:26:09.286Z,5.19
2023-02-27T08:28:35.952Z,5.01
2023-02-27T08:31:02.611Z,5.12
2023-02-27T08:33:29.304Z,5.09
2023-02-27T08:35:55.969Z,5.29
2023-02-27T08:38:23.928Z,5.47
2023-02-27T08:40:52.189Z,4.93
2023-02-27T08:43:19.909Z,5.02
2023-02-27T08:45:47.350Z,4.88
2023-02-27T08:48:14.127Z,4.57
2023-02-27T08:50:40.828Z,4.83
2023-02-27T08:53:07.586Z,4.41
2023-02-27T08:55:34.284Z,4.58
2023-02-27T08:58:00.946Z,4.62
2023-02-27T09:00:27.585Z,4.33
2023-02-27T09:02:57.427Z,4.84
2023-02-27T09:05:24.116Z,4.64
2023-02-27T09:07:50.766Z,4.53
2023-02-27T09:10:17.590Z,4.71
2023-02-27T09:12:44.288Z,4.50
2023-02-27T09:15:11.245Z,5.11
2023-02-27T09:17:38.019Z,4.78
2023-02-27T09:20:05.077Z,4.83
2023-02-27T09:22:31.721Z,4.76
2023-02-27T09:24:58.359Z,4.60
2023-02-27T09:27:25.090Z,4.74
2023-02-27T09:29:51.721Z,4.74
2023-02-27T09:32:18.450Z,4.96
2023-02-27T09:34:45.225Z,4.81
2023-02-27T09:37:11.906Z,4.74
2023-02-27T09:39:38.603Z,4.94
2023-02-27T09:42:09.624Z,4.89
2023-02-27T09:44:46.911Z,5.28
2023-02-27T09:47:21.482Z,5.03
2023-02-27T09:49:59.489Z,4.79
2023-02-27T09:52:29.101Z,5.12
2023-02-27T09:54:56.057Z,5.47
2023-02-27T09:57:33.329Z,6.01
2023-02-27T10:00:06.680Z,4.86
2023-02-27T10:02:49.692Z,5.39
2023-02-27T10:05:57.396Z,5.17
2023-02-27T10:08:59.084Z,5.36
2023-02-27T10:15:18.005Z,5.53
2023-02-27T10:18:23.606Z,5.21
2023-02-27T10:21:07.177Z,5.17
2023-02-27T10:24:12.876Z,4.77
2023-02-27T10:26:44.504Z,4.43
2023-02-27T10:29:28.168Z,4.86
2023-02-27T10:32:11.957Z,5.16
2023-02-27T10:34:40.403Z,5.07
2023-02-27T10:37:09.068Z,4.83
2023-02-27T10:39:48.866Z,5.40
2023-02-27T10:42:17.312Z,5.04
2023-02-27T10:44:46.511Z,4.69
2023-02-27T10:47:14.924Z,5.20
2023-02-27T10:49:42.217Z,5.40
2023-02-27T10:52:13.603Z,5.52
2023-02-27T10:54:40.869Z,5.06
2023-02-27T10:57:22.040Z,4.99
2023-02-27T11:00:00.687Z,5.43
2023-02-27T11:02:42.336Z,5.04
2023-02-27T11:05:31.017Z,4.97
2023-02-27T11:08:09.669Z,5.50
2023-02-27T11:10:37.268Z,5.36
2023-02-27T11:13:07.618Z,5.49
2023-02-27T11:15:35.790Z,5.33
2023-02-27T11:18:29.200Z,4.94
2023-02-27T11:21:15.954Z,5.10
2023-02-27T11:23:56.455Z,5.14
2023-02-27T11:26:28.065Z,5.48
2023-02-27T11:29:27.776Z,5.11
2023-02-27T11:32:12.478Z,5.07
2023-02-27T11:34:42.168Z,5.34
2023-02-27T11:37:37.093Z,5.35
2023-02-27T11:40:11.444Z,5.58
2023-02-27T11:42:43.080Z,5.68
2023-02-27T11:46:18.120Z,5.41
2023-02-27T11:48:32.456Z,5.44
2023-02-27T11:51:19.162Z,5.46
2023-02-27T11:54:10.847Z,5.35
2023-02-27T11:56:46.154Z,5.76
2023-02-27T11:59:27.153Z,5.72
2023-02-27T12:02:00.522Z,5.54
2023-02-27T12:04:30.316Z,5.72
2023-02-27T12:07:01.712Z,5.54
2023-02-27T12:09:39.894Z,5.61
2023-02-27T12:12:20.222Z,5.82
2023-02-27T12:14:56.895Z,6.13
2023-02-27T12:17:40.833Z,5.78
2023-02-27T12:20:28.192Z,5.80
2023-02-27T12:22:55.809Z,5.91
2023-02-27T12:25:37.442Z,5.69
2023-02-27T12:28:10.055Z,6.02
2023-02-27T12:30:41.691Z,6.04
2023-02-27T12:33:31.342Z,5.84
2023-02-27T12:36:00.986Z,5.97
2023-02-27T12:38:27.679Z,5.83
2023-02-27T12:41:15.232Z,5.95
2023-02-27T12:43:49.418Z,6.05
2023-02-27T12:46:28.476Z,6.39
2023-02-27T12:49:19.917Z,6.32
2023-02-27T12:52:11.086Z,6.48
2023-02-27T12:54:47.537Z,6.22
2023-02-27T12:57:17.903Z,6.68
2023-02-27T13:00:06.150Z,6.80
2023-02-27T13:02:56.487Z,6.37
2023-02-27T13:05:28.873Z,6.47
2023-02-27T13:08:00.236Z,6.39
2023-02-27T13:10:44.453Z,6.86
2023-02-27T13:13:26.247Z,6.98
2023-02-27T13:15:56.805Z,6.93
2023-02-27T13:18:41.519Z,6.68
2023-02-27T13:21:11.109Z,6.86
2023-02-27T13:23:43.708Z,6.96
2023-02-27T13:26:19.398Z,7.35
2023-02-27T13:28:46.056Z,6.91
2023-02-27T13:31:19.658Z,6.85
2023-02-27T13:34:08.456Z,6.87
2023-02-27T13:36:40.149Z,7.16
2023-02-27T13:39:44.573Z,6.76
2023-02-27T13:42:26.368Z,7.26
2023-02-27T13:45:03.380Z,7.26
2023-02-27T13:47:29.985Z,6.71
2023-02-27T13:49:56.493Z,6.75
2023-02-27T13:52:31.112Z,6.75
2023-02-27T13:55:06.185Z,6.86
2023-02-27T13:57:37.103Z,6.42
2023-02-27T14:00:17.033Z,6.18
2023-02-27T14:03:00.396Z,6.44
2023-02-27T14:05:38.347Z,6.63
2023-02-27T14:08:12.176Z,6.66
2023-02-27T14:10:40.354Z,6.63
2023-02-27T14:13:41.288Z,6.49
2023-02-27T14:16:11.299Z,7.03
2023-02-27T14:18:52.812Z,6.83
2023-02-27T14:22:02.346Z,6.51
2023-02-27T14:24:32.947Z,6.63
2023-02-27T14:27:00.601Z,6.86
2023-02-27T14:29:28.410Z,7.00
2023-02-27T14:31:55.120Z,7.24
2023-02-27T14:34:21.979Z,7.13
2023-02-27T14:37:01.442Z,7.46
2023-02-27T14:39:29.400Z,7.51
2023-02-27T14:42:24.295Z,7.31
2023-02-27T14:44:51.011Z,7.43
2023-02-27T14:47:27.582Z,7.30
2023-02-27T14:49:55.082Z,7.36
2023-02-27T14:52:26.698Z,7.54
2023-02-27T14:54:54.274Z,7.66
2023-02-27T14:57:23.743Z,7.67
2023-02-27T14:59:52.198Z,7.81
2023-02-27T15:02:29.866Z,7.57
2023-02-27T15:05:15.369Z,7.23
2023-02-27T15:07:44.291Z,7.59
2023-02-27T15:10:16.981Z,7.41
2023-02-27T15:12:44.594Z,7.41
2023-02-27T15:15:17.386Z,8.06
2023-02-27T15:17:45.791Z,7.70
2023-02-27T15:20:32.203Z,7.55
2023-02-27T15:22:59.781Z,7.71
2023-02-27T15:25:28.668Z,7.79
2023-02-27T15:27:57.568Z,7.72
2023-02-27T15:30:24.580Z,7.87
2023-02-27T15:32:55.689Z,7.57
2023-02-27T15:35:24.202Z,8.18
2023-02-27T15:37:52.634Z,8.03
2023-02-27T15:40:21.652Z,7.79
2023-02-27T15:42:48.833Z,7.77
2023-02-27T15:45:20.787Z,7.97
2023-02-27T15:47:48.058Z,7.92
2023-02-27T15:50:18.641Z,8.25
2023-02-27T15:52:55.278Z,7.96
2023-02-27T15:55:26.422Z,8.05
2023-02-27T15:58:02.694Z,8.25
2023-02-27T16:00:31.112Z,8.24
2023-02-27T16:02:57.911Z,7.86
2023-02-27T16:05:34.027Z,8.09
2023-02-27T16:08:00.899Z,8.25
2023-02-27T16:10:30.520Z,8.27
2023-02-27T16:12:57.156Z,8.34
2023-02-27T16:15:33.541Z,8.34
2023-02-27T16:18:04.432Z,8.19
2023-02-27T16:20:40.345Z,8.70
2023-02-27T16:23:23.033Z,8.99
2023-02-27T16:26:29.570Z,8.88
2023-02-27T16:28:58.977Z,8.74
2023-02-27T16:31:32.438Z,9.16
2023-02-27T16:34:14.244Z,9.01
2023-02-27T16:36:41.584Z,8.72
2023-02-27T16:39:14.456Z,8.51
2023-02-27T16:41:41.116Z,9.12
2023-02-27T16:44:08.241Z,8.92
2023-02-27T16:46:34.914Z,9.30
2023-02-27T16:49:14.143Z,9.43
2023-02-27T16:51:46.117Z,9.36
2023-02-27T16:54:12.776Z,9.08
2023-02-27T16:56:39.661Z,9.07
2023-02-27T16:59:08.275Z,8.95
2023-02-27T17:01:35.918Z,8.96
2023-02-27T17:04:05.175Z,9.49
2023-02-27T17:06:36.080Z,9.14
2023-02-27T17:09:03.750Z,9.79
2023-02-27T17:11:30.438Z,9.42
2023-02-27T17:13:57.460Z,9.61
2023-02-27T17:16:24.471Z,9.48
2023-02-27T17:18:51.146Z,9.89
2023-02-27T17:21:18.043Z,9.38
2023-02-27T17:23:45.321Z,9.65
2023-02-27T17:26:12.588Z,9.61
2023-02-27T17:28:39.347Z,9.12
2023-02-27T17:31:12.159Z,9.47
2023-02-27T17:33:42.250Z,9.86
2023-02-27T17:36:10.307Z,9.59
2023-02-27T17:38:37.922Z,9.91
2023-02-27T17:41:09.507Z,9.55
2023-02-27T17:43:37.112Z,9.43
2023-02-27T17:46:10.861Z,9.43
2023-02-27T17:48:39.330Z,9.53
2023-02-27T17:51:07.917Z,9.81
2023-02-27T17:53:35.512Z,9.22
2023-02-27T17:56:03.168Z,9.54
2023-02-27T17:58:30.786Z,10.05
2023-02-27T18:01:24.566Z,9.44
2023-02-27T18:03:53.054Z,9.96
2023-02-27T18:06:20.715Z,9.97
2023-02-27T18:08:48.291Z,11.15
2023-02-27T18:11:16.943Z,11.55
2023-02-27T18:13:44.573Z,11.53
2023-02-27T18:16:13.233Z,10.40
2023-02-27T18:18:40.785Z,10.11
2023-02-27T18:21:12.830Z,9.74
2023-02-27T18:23:39.720Z,10.02
2023-02-27T18:26:07.169Z,10.14
2023-02-27T18:28:35.397Z,10.42
2023-02-27T18:31:03.025Z,10.33
2023-02-27T18:33:30.651Z,10.54
2023-02-27T18:35:58.256Z,10.29
2023-02-27T18:38:26.793Z,10.24
2023-02-27T18:40:56.573Z,10.43
2023-02-27T18:43:23.629Z,10.59
2023-02-27T18:45:50.655Z,10.65
2023-02-27T18:48:20.125Z,10.47
2023-02-27T18:50:49.510Z,10.65
2023-02-27T18:53:16.296Z,10.94
2023-02-27T18:55:42.983Z,10.94
2023-02-27T18:58:10.726Z,10.89
2023-02-27T19:00:38.278Z,10.84
2023-02-27T19:05:46.558Z,11.12
2023-02-27T19:08:15.125Z,11.09
2023-02-27T19:10:41.817Z,11.06
2023-02-27T19:13:10.341Z,11.34
2023-02-27T19:15:37.956Z,10.99
2023-02-27T19:18:05.786Z,11.49
2023-02-27T19:20:32.830Z,11.22
2023-02-27T19:22:59.522Z,11.77
2023-02-27T19:25:26.221Z,11.85
2023-02-27T19:27:54.238Z,12.22
2023-02-27T19:30:21.592Z,11.78
2023-02-27T19:32:49.091Z,11.77
2023-02-27T19:35:16.701Z,12.34
2023-02-27T19:37:45.298Z,12.36
2023-02-27T19:40:12.569Z,12.16
2023-02-27T19:42:41.465Z,12.03
2023-02-27T19:45:08.368Z,12.02
2023-02-27T19:47:36.728Z,11.66
2023-02-27T19:50:04.330Z,11.40
2023-02-27T19:52:30.997Z,11.73
2023-02-27T19:54:57.682Z,11.71
2023-02-27T19:57:24.384Z,11.53
2023-02-27T19:59:51.059Z,11.55
2023-02-27T20:02:17.998Z,12.15
2023-02-27T20:04:44.644Z,11.28
2023-02-27T20:07:11.620Z,12.05
2023-02-27T20:09:38.279Z,12.55
2023-02-27T20:12:05.119Z,12.33
2023-02-27T20:14:31.753Z,11.76
2023-02-27T20:16:58.459Z,11.73
2023-02-27T20:19:25.104Z,12.41
2023-02-27T20:21:51.760Z,12.46
2023-02-27T20:24:18.457Z,12.23
2023-02-27T20:26:49.687Z,12.75
2023-02-27T20:29:18.420Z,12.98
2023-02-27T20:31:46.176Z,14.97
2023-02-27T20:34:17.090Z,13.51
2023-02-27T20:36:44.654Z,13.26
2023-02-27T20:39:11.503Z,12.99
2023-02-27T20:41:38.203Z,12.95
2023-02-27T20:44:05.240Z,12.79
2023-02-27T20:46:33.425Z,13.15
2023-02-27T20:49:02.045Z,13.47
2023-02-27T20:51:30.806Z,13.54
2023-02-27T20:53:59.413Z,13.01
2023-02-27T20:56:31.253Z,13.69
2023-02-27T20:58:58.432Z,13.68
2023-02-27T21:01:25.673Z,14.11
2023-02-27T21:03:52.998Z,13.15
2023-02-27T21:06:19.649Z,13.31
2023-02-27T21:08:49.028Z,13.67
2023-02-27T21:11:17.994Z,13.38
2023-02-27T21:13:45.292Z,13.26
2023-02-27T21:16:12.885Z,12.78
2023-02-27T21:18:41.916Z,13.59
2023-02-27T21:21:15.878Z,13.28
2023-02-27T21:23:44.731Z,12.79
2023-02-27T21:26:21.119Z,12.94
2023-02-27T21:28:54.445Z,13.23
2023-02-27T21:31:22.860Z,13.27
2023-02-27T21:33:50.375Z,13.25
2023-02-27T21:36:18.983Z,12.83
2023-02-27T21:38:47.560Z,12.71
2023-02-27T21:41:14.310Z,12.36
2023-02-27T21:43:41.782Z,12.76
2023-02-27T21:46:10.394Z,12.69
2023-02-27T21:48:37.958Z,13.02
2023-02-27T21:51:05.587Z,12.90
2023-02-27T21:53:33.167Z,13.57
2023-02-27T21:56:07.779Z,13.07
2023-02-27T21:58:35.398Z,12.59
2023-02-27T22:01:03.989Z,12.57
2023-02-27T22:03:31.580Z,12.28
2023-02-27T22:05:59.198Z,12.90
2023-02-27T22:08:26.797Z,12.27
2023-02-27T22:10:59.847Z,12.24
2023-02-27T22:13:27.024Z,12.74
2023-02-27T22:15:54.677Z,12.70
2023-02-27T22:18:21.344Z,13.21
2023-02-27T22:20:48.855Z,12.32
2023-02-27T22:23:16.447Z,12.71
2023-02-27T22:25:44.055Z,12.66
2023-02-27T22:28:10.709Z,12.20
2023-02-27T22:30:37.350Z,12.63
2023-02-27T22:33:04.009Z,12.76
2023-02-27T22:35:31.779Z,12.33
2023-02-27T22:37:58.505Z,12.63
2023-02-27T22:40:25.311Z,12.47
2023-02-27T22:42:51.965Z,12.79
2023-02-27T22:45:18.682Z,12.80
2023-02-27T22:47:45.938Z,12.60
2023-02-27T22:50:13.560Z,12.22
2023-02-27T22:52:41.157Z,12.78
2023-02-27T22:55:08.733Z,12.43
2023-02-27T22:57:35.813Z,12.25
2023-02-27T23:00:02.588Z,12.39
2023-02-27T23:02:29.229Z,12.52
2023-02-27T23:04:55.888Z,12.44
2023-02-27T23:07:22.543Z,11.76
2023-02-27T23:09:49.348Z,11.63
2023-02-27T23:12:16.946Z,12.01
2023-02-27T23:14:44.593Z,11.93
2023-02-27T23:17:11.265Z,12.15
2023-02-27T23:19:37.941Z,11.88
2023-02-27T23:22:04.574Z,12.01
2023-02-27T23:24:31.924Z,11.84
2023-02-27T23:26:59.503Z,11.86
2023-02-27T23:29:27.111Z,11.77
2023-02-27T23:31:53.970Z,11.58
2023-02-27T23:34:21.395Z,11.84
2023-02-27T23:36:49.045Z,11.30
2023-02-27T23:39:16.644Z,11.71
2023-02-27T23:41:44.253Z,11.35
2023-02-27T23:44:11.835Z,12.01
2023-02-27T23:46:39.507Z,11.70
2023-02-27T23:49:06.184Z,11.91
2023-02-27T23:51:33.092Z,12.00
2023-02-27T23:54:00.066Z,11.39
2023-02-27T23:56:28.913Z,11.09
2023-02-27T23:58:58.491Z,11.35
